createdAt,value
2019-02-19T00:01:34.463Z,39.38
2019-02-19T00:04:03.622Z,39.40
2019-02-19T00:06:32.794Z,39.46
2019-02-19T00:09:01.882Z,39.47
2019-02-19T00:11:30.943Z,39.44
2019-02-19T00:14:00.003Z,39.54
2019-02-19T00:16:29.053Z,39.40
2019-02-19T00:18:58.093Z,39.36
2019-02-19T00:21:27.104Z,39.34
2019-02-19T00:23:56.167Z,39.37
2019-02-19T00:26:25.224Z,39.27
2019-02-19T00:28:54.239Z,39.34
2019-02-19T00:31:23.235Z,39.35
2019-02-19T00:33:52.275Z,39.39
2019-02-19T00:36:21.315Z,39.35
2019-02-19T00:38:50.355Z,39.41
2019-02-19T00:41:19.339Z,39.43
2019-02-19T00:43:48.370Z,39.54
2019-02-19T00:46:17.457Z,39.50
2019-02-19T00:48:46.506Z,39.54
2019-02-19T00:51:15.411Z,39.63
2019-02-19T00:53:44.566Z,39.56
2019-02-19T00:56:13.577Z,39.57
2019-02-19T00:58:42.628Z,39.60
2019-02-19T01:01:11.608Z,39.57
2019-02-19T01:03:40.667Z,39.56
2019-02-19T01:06:09.665Z,39.52
2019-02-19T01:08:38.724Z,39.41
2019-02-19T01:11:07.744Z,39.37
2019-02-19T01:13:36.779Z,39.42
2019-02-19T01:16:05.742Z,39.41
2019-02-19T01:18:34.790Z,39.41
2019-02-19T01:21:03.786Z,39.42
2019-02-19T01:23:32.835Z,39.47
2019-02-19T01:26:01.930Z,39.48
2019-02-19T01:28:30.981Z,39.55
2019-02-19T01:30:59.911Z,39.58
2019-02-19T01:33:28.903Z,39.76
2019-02-19T01:35:57.896Z,39.77
2019-02-19T01:38:26.994Z,39.76
2019-02-19T01:40:55.988Z,39.86
2019-02-19T01:43:25.037Z,39.84
2019-02-19T01:45:54.028Z,40.08
2019-02-19T01:48:23.121Z,40.16
2019-02-19T01:50:52.146Z,40.24
2019-02-19T01:53:21.198Z,40.25
2019-02-19T01:55:50.224Z,40.38
2019-02-19T01:58:19.295Z,40.49
2019-02-19T02:00:48.349Z,40.61
2019-02-19T02:03:17.277Z,40.75
2019-02-19T02:05:46.268Z,40.86
2019-02-19T02:08:15.261Z,41.01
2019-02-19T02:10:44.262Z,41.35
2019-02-19T02:13:13.174Z,41.62
2019-02-19T02:15:42.912Z,41.88
2019-02-19T02:18:12.020Z,42.07
2019-02-19T02:20:41.065Z,42.49
2019-02-19T02:23:10.095Z,42.68
2019-02-19T02:25:39.166Z,42.63
2019-02-19T02:28:08.140Z,42.49
2019-02-19T02:30:37.155Z,42.56
2019-02-19T02:33:06.183Z,42.54
2019-02-19T02:35:35.201Z,42.65
2019-02-19T02:38:04.240Z,42.65
2019-02-19T02:40:33.100Z,42.61
2019-02-19T02:43:02.101Z,42.58
2019-02-19T02:45:31.145Z,42.52
2019-02-19T02:48:00.222Z,42.54
2019-02-19T02:50:29.191Z,42.61
2019-02-19T02:52:58.088Z,42.56
2019-02-19T02:55:27.130Z,42.59
2019-02-19T02:57:56.146Z,42.52
2019-02-19T03:00:25.194Z,42.54
2019-02-19T03:02:54.121Z,42.72
2019-02-19T03:05:25.288Z,42.82
2019-02-19T03:07:56.901Z,42.88
2019-02-19T03:10:25.939Z,42.92
2019-02-19T03:12:55.004Z,43.00
2019-02-19T03:15:23.963Z,43.27
2019-02-19T03:17:52.994Z,43.38
2019-02-19T03:20:22.039Z,43.41
2019-02-19T03:22:50.979Z,43.51
2019-02-19T03:25:19.976Z,43.76
2019-02-19T03:27:48.897Z,43.87
2019-02-19T03:30:17.916Z,43.97
2019-02-19T03:32:46.795Z,44.02
2019-02-19T03:35:15.816Z,44.20
2019-02-19T03:37:44.824Z,44.32
2019-02-19T03:40:13.841Z,44.51
2019-02-19T03:42:42.826Z,44.84
2019-02-19T03:45:11.971Z,45.10
2019-02-19T03:47:41.037Z,45.27
2019-02-19T03:50:10.086Z,45.37
2019-02-19T03:52:38.976Z,45.56
2019-02-19T03:55:08.027Z,45.59
2019-02-19T03:57:37.362Z,45.64
2019-02-19T04:00:06.252Z,45.83
2019-02-19T04:02:35.197Z,45.86
2019-02-19T04:05:04.090Z,45.98
2019-02-19T04:07:33.122Z,46.04
2019-02-19T04:10:02.093Z,46.05
2019-02-19T04:12:31.067Z,46.19
2019-02-19T04:14:59.994Z,46.31
2019-02-19T04:17:28.945Z,46.63
2019-02-19T04:19:57.944Z,46.87
2019-02-19T04:22:26.975Z,47.02
2019-02-19T04:24:55.935Z,47.16
2019-02-19T04:27:24.830Z,47.29
2019-02-19T04:29:53.931Z,47.42
2019-02-19T04:32:22.976Z,47.64
2019-02-19T04:34:52.171Z,48.01
2019-02-19T04:37:21.202Z,48.24
2019-02-19T04:39:50.181Z,48.52
2019-02-19T04:42:19.304Z,48.62
2019-02-19T04:44:48.321Z,48.79
2019-02-19T04:47:17.381Z,48.96
2019-02-19T04:49:46.369Z,48.89
2019-02-19T04:52:15.443Z,49.01
2019-02-19T04:54:44.470Z,48.97
2019-02-19T04:57:13.623Z,49.04
2019-02-19T04:59:42.688Z,49.36
2019-02-19T05:02:11.737Z,49.41
2019-02-19T05:04:40.769Z,49.56
2019-02-19T05:07:09.869Z,49.65
2019-02-19T05:09:38.918Z,49.75
2019-02-19T05:12:07.998Z,50.07
2019-02-19T05:14:37.013Z,50.22
2019-02-19T05:17:06.090Z,50.28
2019-02-19T05:19:34.995Z,50.40
2019-02-19T05:22:04.055Z,50.35
2019-02-19T05:24:33.064Z,50.47
2019-02-19T05:27:02.135Z,50.47
2019-02-19T05:29:31.161Z,50.62
2019-02-19T05:32:00.193Z,50.66
2019-02-19T05:34:29.386Z,50.88
2019-02-19T05:36:58.474Z,50.86
2019-02-19T05:39:27.518Z,50.93
2019-02-19T05:41:56.588Z,51.09
2019-02-19T05:44:25.748Z,51.11
2019-02-19T05:46:54.736Z,51.08
2019-02-19T05:49:23.797Z,51.00
2019-02-19T05:51:52.869Z,51.05
2019-02-19T05:54:24.455Z,51.14
2019-02-19T05:56:53.522Z,51.28
2019-02-19T05:59:22.689Z,51.26
2019-02-19T06:01:51.690Z,51.56
2019-02-19T06:04:20.864Z,51.49
2019-02-19T06:06:49.915Z,51.44
2019-02-19T06:09:20.256Z,51.58
2019-02-19T06:11:49.307Z,51.67
2019-02-19T06:14:20.192Z,51.75
2019-02-19T06:16:49.256Z,51.85
2019-02-19T06:19:18.458Z,51.92
2019-02-19T06:21:47.498Z,51.99
2019-02-19T06:24:16.565Z,51.93
2019-02-19T06:26:45.639Z,51.99
2019-02-19T06:29:14.741Z,52.00
2019-02-19T06:31:43.837Z,52.08
2019-02-19T06:34:14.311Z,52.08
2019-02-19T06:36:43.436Z,52.23
2019-02-19T06:39:12.484Z,52.40
2019-02-19T06:41:41.555Z,52.53
2019-02-19T06:44:10.648Z,52.75
2019-02-19T06:46:39.765Z,52.81
2019-02-19T06:49:08.996Z,52.91
2019-02-19T06:51:38.045Z,52.96
2019-02-19T06:54:07.113Z,53.10
2019-02-19T06:56:36.099Z,53.05
2019-02-19T06:59:05.254Z,53.11
2019-02-19T07:01:53.922Z,53.15
2019-02-19T07:04:26.847Z,53.07
2019-02-19T07:06:55.828Z,53.09
2019-02-19T07:09:24.945Z,53.06
2019-02-19T07:11:53.988Z,53.16
2019-02-19T07:14:23.001Z,53.05
2019-02-19T07:16:52.116Z,52.95
2019-02-19T07:19:21.324Z,52.88
2019-02-19T07:21:50.399Z,52.93
2019-02-19T07:24:19.489Z,52.91
2019-02-19T07:26:48.804Z,52.92
2019-02-19T07:29:17.951Z,52.80
2019-02-19T07:31:47.019Z,52.71
2019-02-19T07:34:16.101Z,52.64
2019-02-19T07:36:45.201Z,52.39
2019-02-19T07:39:14.293Z,52.25
2019-02-19T07:41:43.229Z,52.27
2019-02-19T07:44:12.227Z,52.15
2019-02-19T07:46:41.316Z,52.10
2019-02-19T07:49:10.279Z,52.06
2019-02-19T07:51:39.400Z,52.06
2019-02-19T07:54:08.365Z,52.04
2019-02-19T07:56:37.447Z,51.94
2019-02-19T07:59:06.565Z,51.96
2019-02-19T08:01:35.565Z,51.98
2019-02-19T08:04:04.660Z,51.93
2019-02-19T08:06:33.706Z,51.88
2019-02-19T08:09:03.642Z,51.87
2019-02-19T08:11:32.738Z,51.85
2019-02-19T08:14:03.393Z,51.87
2019-02-19T08:16:33.543Z,51.88
2019-02-19T08:19:02.695Z,51.76
2019-02-19T08:21:31.773Z,51.77
2019-02-19T08:24:00.866Z,51.63
2019-02-19T08:26:30.008Z,51.43
2019-02-19T08:29:07.136Z,51.37
2019-02-19T08:31:29.869Z,51.20
2019-02-19T08:33:58.959Z,51.01
2019-02-19T08:36:29.677Z,50.88
2019-02-19T08:38:59.335Z,50.78
2019-02-19T08:41:28.383Z,50.75
2019-02-19T08:43:57.452Z,50.72
2019-02-19T08:46:26.563Z,50.53
2019-02-19T08:48:55.641Z,50.24
2019-02-19T08:51:31.552Z,49.96
2019-02-19T08:54:00.717Z,49.23
2019-02-19T08:56:29.885Z,48.25
2019-02-19T08:58:59.036Z,47.49
2019-02-19T09:01:28.097Z,46.15
2019-02-19T09:03:57.355Z,43.43
2019-02-19T09:06:27.721Z,41.10
2019-02-19T09:08:59.705Z,38.91
2019-02-19T09:11:32.624Z,37.42
2019-02-19T09:14:04.320Z,35.13
2019-02-19T09:16:35.191Z,33.74
2019-02-19T09:19:05.611Z,32.23
2019-02-19T09:21:36.446Z,30.75
2019-02-19T09:24:09.436Z,29.63
2019-02-19T09:26:38.094Z,28.10
2019-02-19T09:29:11.791Z,26.71
2019-02-19T09:31:42.639Z,25.69
2019-02-19T09:34:13.767Z,24.58
2019-02-19T09:36:44.763Z,23.54
2019-02-19T09:39:14.552Z,22.65
2019-02-19T09:41:44.610Z,21.85
2019-02-19T09:44:14.859Z,20.92
2019-02-19T09:46:49.264Z,20.43
2019-02-19T09:49:21.436Z,20.29
2019-02-19T09:51:51.632Z,20.21
2019-02-19T09:54:26.153Z,19.94
2019-02-19T09:56:59.852Z,19.66
2019-02-19T09:59:30.005Z,19.09
2019-02-19T10:02:35.940Z,18.55
2019-02-19T10:05:17.402Z,18.75
2019-02-19T10:07:53.269Z,19.97
2019-02-19T10:10:23.789Z,21.28
2019-02-19T10:12:55.577Z,22.54
2019-02-19T10:15:25.710Z,23.31
2019-02-19T10:17:55.710Z,23.79
2019-02-19T10:20:25.705Z,24.26
2019-02-19T10:22:56.196Z,24.62
2019-02-19T10:25:27.981Z,25.40
2019-02-19T10:27:57.973Z,25.46
2019-02-19T10:30:28.467Z,26.09
2019-02-19T10:32:58.649Z,24.94
2019-02-19T10:35:29.172Z,22.75
2019-02-19T10:38:03.086Z,20.61
2019-02-19T10:40:33.353Z,18.95
2019-02-19T10:43:03.425Z,17.80
2019-02-19T10:45:33.897Z,16.58
2019-02-19T10:48:06.903Z,16.03
2019-02-19T10:50:40.960Z,15.94
2019-02-19T10:53:13.138Z,15.03
2019-02-19T10:55:43.335Z,15.23
2019-02-19T10:58:22.246Z,14.94
2019-02-19T11:00:48.600Z,15.11
2019-02-19T11:03:21.334Z,14.67
2019-02-19T11:05:51.920Z,14.81
2019-02-19T11:08:23.009Z,15.77
2019-02-19T11:10:53.847Z,17.02
2019-02-19T11:13:30.506Z,18.44
2019-02-19T11:16:00.621Z,19.82
2019-02-19T11:18:35.172Z,21.22
2019-02-19T11:21:07.683Z,21.87
2019-02-19T11:23:40.299Z,22.62
2019-02-19T11:26:16.704Z,22.50
2019-02-19T11:28:47.007Z,20.35
2019-02-19T11:31:18.931Z,18.21
2019-02-19T11:33:50.156Z,17.35
2019-02-19T11:36:20.244Z,16.99
2019-02-19T11:38:50.695Z,17.66
2019-02-19T11:41:20.755Z,18.40
2019-02-19T11:43:53.489Z,18.80
2019-02-19T11:46:24.257Z,19.58
2019-02-19T11:48:56.261Z,19.36
2019-02-19T11:51:29.997Z,18.58
2019-02-19T11:54:00.313Z,18.47
2019-02-19T11:56:30.975Z,18.69
2019-02-19T11:59:02.306Z,19.43
2019-02-19T12:01:33.282Z,20.33
2019-02-19T12:04:03.311Z,21.30
2019-02-19T12:06:34.116Z,22.25
2019-02-19T12:09:12.797Z,23.18
2019-02-19T12:11:42.785Z,23.89
2019-02-19T12:14:13.056Z,24.64
2019-02-19T12:16:43.646Z,25.33
2019-02-19T12:19:13.691Z,24.69
2019-02-19T12:21:43.742Z,24.29
2019-02-19T12:24:12.809Z,24.33
2019-02-19T12:26:41.895Z,23.53
2019-02-19T12:29:10.887Z,23.79
2019-02-19T12:31:39.969Z,24.48
2019-02-19T12:34:08.972Z,25.19
2019-02-19T12:36:37.934Z,25.84
2019-02-19T12:39:07.036Z,26.46
2019-02-19T12:41:36.113Z,27.09
2019-02-19T12:44:05.119Z,27.79
2019-02-19T12:46:34.157Z,28.09
2019-02-19T12:49:03.221Z,28.30
2019-02-19T12:51:32.215Z,28.71
2019-02-19T12:54:01.280Z,29.11
2019-02-19T12:56:30.332Z,29.59
2019-02-19T12:58:59.350Z,29.91
2019-02-19T13:01:28.430Z,30.34
2019-02-19T13:03:57.425Z,30.62
2019-02-19T13:06:26.465Z,30.81
2019-02-19T13:08:56.313Z,30.91
2019-02-19T13:11:25.359Z,30.96
2019-02-19T13:13:54.369Z,30.92
2019-02-19T13:16:23.308Z,31.14
2019-02-19T13:18:52.361Z,31.31
2019-02-19T13:21:21.401Z,31.44
2019-02-19T13:23:50.654Z,31.60
2019-02-19T13:26:19.686Z,31.83
2019-02-19T13:28:48.708Z,31.89
2019-02-19T13:31:17.744Z,31.86
2019-02-19T13:33:46.729Z,31.54
2019-02-19T13:36:15.783Z,31.45
2019-02-19T13:38:44.968Z,31.49
2019-02-19T13:41:14.017Z,31.55
2019-02-19T13:43:43.000Z,31.51
2019-02-19T13:46:12.058Z,31.53
2019-02-19T13:48:41.061Z,31.48
2019-02-19T13:51:10.091Z,31.48
2019-02-19T13:53:53.836Z,31.42
2019-02-19T13:56:22.819Z,31.16
2019-02-19T13:58:51.954Z,31.03
2019-02-19T14:01:21.064Z,31.15
2019-02-19T14:03:50.088Z,31.23
2019-02-19T14:06:19.081Z,31.41
2019-02-19T14:08:48.118Z,31.45
2019-02-19T14:11:17.239Z,31.46
2019-02-19T14:14:08.271Z,31.47
2019-02-19T14:16:58.867Z,31.44
2019-02-19T14:19:49.848Z,31.52
2019-02-19T14:22:38.754Z,31.68
2019-02-19T14:25:25.873Z,31.88
2019-02-19T14:28:17.575Z,32.04
2019-02-19T14:31:17.617Z,32.11
2019-02-19T14:34:14.859Z,32.33
2019-02-19T14:37:01.735Z,32.42
2019-02-19T14:40:10.335Z,32.60
2019-02-19T14:42:53.118Z,32.64
2019-02-19T14:45:53.400Z,32.78
2019-02-19T14:48:50.449Z,32.82
2019-02-19T14:51:33.604Z,32.75
2019-02-19T14:54:24.415Z,32.63
2019-02-19T14:57:24.273Z,32.43
2019-02-19T15:00:15.014Z,32.44
2019-02-19T15:02:56.801Z,32.49
2019-02-19T15:05:46.726Z,32.63
2019-02-19T15:08:25.941Z,32.70
2019-02-19T15:11:22.827Z,32.67
2019-02-19T15:14:13.843Z,32.71
2019-02-19T15:17:19.987Z,32.72
2019-02-19T15:20:07.980Z,32.74
2019-02-19T15:22:59.048Z,33.01
2019-02-19T15:25:49.244Z,33.30
2019-02-19T15:28:37.352Z,33.66
2019-02-19T15:31:43.685Z,34.04
2019-02-19T15:34:30.250Z,34.18
2019-02-19T15:37:27.053Z,34.44
2019-02-19T15:40:17.802Z,34.44
2019-02-19T15:43:04.522Z,34.34
2019-02-19T15:45:52.549Z,34.22
2019-02-19T15:48:46.602Z,34.29
2019-02-19T15:51:28.037Z,34.36
2019-02-19T15:54:19.983Z,34.40
2019-02-19T15:57:13.124Z,34.43
2019-02-19T15:59:59.874Z,34.51
2019-02-19T16:03:02.943Z,34.59
2019-02-19T16:06:02.557Z,34.68
2019-02-19T16:08:50.589Z,34.71
2019-02-19T16:11:38.453Z,34.86
2019-02-19T16:14:20.586Z,35.03
2019-02-19T16:17:08.003Z,35.14
2019-02-19T16:19:43.045Z,35.22
2019-02-19T16:22:32.528Z,35.34
2019-02-19T16:25:20.523Z,35.51
2019-02-19T16:28:08.486Z,35.68
2019-02-19T16:30:55.394Z,35.79
2019-02-19T16:33:49.639Z,35.84
2019-02-19T16:36:40.402Z,35.96
2019-02-19T16:39:31.494Z,36.01
2019-02-19T16:42:19.472Z,36.04
2019-02-19T16:45:05.984Z,35.98
2019-02-19T16:47:45.144Z,36.00
2019-02-19T16:50:51.296Z,35.97
2019-02-19T16:53:48.409Z,36.03
2019-02-19T16:56:29.911Z,36.07
2019-02-19T16:59:36.161Z,36.12
2019-02-19T17:02:28.068Z,36.26
2019-02-19T17:05:16.184Z,36.29
2019-02-19T17:07:50.395Z,36.40
2019-02-19T17:10:28.294Z,36.45
2019-02-19T17:13:05.431Z,36.58
2019-02-19T17:15:52.112Z,36.70
2019-02-19T17:18:39.065Z,36.83
2019-02-19T17:21:19.442Z,36.95
2019-02-19T17:24:07.421Z,37.02
2019-02-19T17:26:53.902Z,37.08
2019-02-19T17:29:45.314Z,37.11
2019-02-19T17:32:48.621Z,37.19
2019-02-19T17:35:26.860Z,37.17
2019-02-19T17:38:23.725Z,37.22
2019-02-19T17:41:18.226Z,37.42
2019-02-19T17:43:57.951Z,37.60
2019-02-19T17:46:44.539Z,37.83
2019-02-19T17:49:24.405Z,37.99
2019-02-19T17:52:14.494Z,38.13
2019-02-19T17:54:55.896Z,38.31
2019-02-19T17:57:59.143Z,38.50
2019-02-19T18:00:38.336Z,38.78
2019-02-19T18:03:20.100Z,38.77
2019-02-19T18:06:10.891Z,38.83
2019-02-19T18:09:13.994Z,38.99
2019-02-19T18:11:59.991Z,39.18
2019-02-19T18:14:50.856Z,39.36
2019-02-19T18:17:29.953Z,39.62
2019-02-19T18:19:59.956Z,39.71
2019-02-19T18:22:29.019Z,39.90
2019-02-19T18:24:57.993Z,39.95
2019-02-19T18:27:27.086Z,40.07
2019-02-19T18:29:56.181Z,40.17
2019-02-19T18:32:25.286Z,40.30
2019-02-19T18:34:54.568Z,40.41
2019-02-19T18:37:23.680Z,40.50
2019-02-19T18:39:52.763Z,40.61
2019-02-19T18:42:21.836Z,40.71
2019-02-19T18:44:51.132Z,40.79
2019-02-19T18:47:21.740Z,40.99
2019-02-19T18:49:50.886Z,41.01
2019-02-19T18:52:20.272Z,41.11
2019-02-19T18:54:50.401Z,41.30
2019-02-19T18:57:19.695Z,41.27
2019-02-19T18:59:50.522Z,41.30
2019-02-19T19:02:19.884Z,41.35
2019-02-19T19:04:48.823Z,41.41
2019-02-19T19:07:19.446Z,41.45
2019-02-19T19:09:48.642Z,41.52
2019-02-19T19:12:17.718Z,41.52
2019-02-19T19:14:46.729Z,41.47
2019-02-19T19:17:15.728Z,41.48
2019-02-19T19:19:44.805Z,41.46
2019-02-19T19:22:14.980Z,41.38
2019-02-19T19:24:44.005Z,41.36
2019-02-19T19:27:13.145Z,41.37
2019-02-19T19:29:42.220Z,41.38
2019-02-19T19:32:11.297Z,41.43
2019-02-19T19:34:40.387Z,41.47
2019-02-19T19:37:09.456Z,41.48
2019-02-19T19:39:38.544Z,41.53
2019-02-19T19:42:07.650Z,41.52
2019-02-19T19:44:36.702Z,41.54
2019-02-19T19:47:05.798Z,41.58
2019-02-19T19:49:34.932Z,41.50
2019-02-19T19:52:04.040Z,41.69
2019-02-19T19:54:33.079Z,41.64
2019-02-19T19:57:02.094Z,41.65
2019-02-19T19:59:31.061Z,41.77
2019-02-19T20:02:00.146Z,41.84
2019-02-19T20:04:29.345Z,41.93
2019-02-19T20:06:58.411Z,42.06
2019-02-19T20:09:27.427Z,42.09
2019-02-19T20:11:56.451Z,42.17
2019-02-19T20:14:25.504Z,42.24
2019-02-19T20:16:54.496Z,42.28
2019-02-19T20:19:23.565Z,42.34
2019-02-19T20:21:52.605Z,42.35
2019-02-19T20:24:21.660Z,42.42
2019-02-19T20:26:50.732Z,42.44
2019-02-19T20:29:19.858Z,42.56
2019-02-19T20:31:48.889Z,42.62
2019-02-19T20:34:18.105Z,42.73
2019-02-19T20:36:47.241Z,42.75
2019-02-19T20:39:16.336Z,42.76
2019-02-19T20:41:45.311Z,42.75
2019-02-19T20:44:14.241Z,42.86
2019-02-19T20:46:43.401Z,42.84
2019-02-19T20:49:12.346Z,42.89
2019-02-19T20:51:41.340Z,42.95
2019-02-19T20:54:10.357Z,42.98
2019-02-19T20:56:39.302Z,43.02
2019-02-19T20:59:08.395Z,43.02
2019-02-19T21:01:37.433Z,43.14
2019-02-19T21:04:06.344Z,43.19
2019-02-19T21:06:35.279Z,43.33
2019-02-19T21:09:04.501Z,43.45
2019-02-19T21:11:33.597Z,43.52
2019-02-19T21:14:02.589Z,43.66
2019-02-19T21:16:31.608Z,43.68
2019-02-19T21:19:00.608Z,43.78
2019-02-19T21:21:29.630Z,43.86
2019-02-19T21:23:58.695Z,43.87
2019-02-19T21:26:27.719Z,43.89
2019-02-19T21:28:56.712Z,43.95
2019-02-19T21:31:25.721Z,43.99
2019-02-19T21:33:54.721Z,44.03
2019-02-19T21:36:23.659Z,44.13
2019-02-19T21:38:52.731Z,44.21
2019-02-19T21:41:21.669Z,44.27
2019-02-19T21:43:50.512Z,44.31
2019-02-19T21:46:19.663Z,44.35
2019-02-19T21:48:48.641Z,44.42
2019-02-19T21:51:17.709Z,44.52
2019-02-19T21:53:46.684Z,44.54
2019-02-19T21:56:15.671Z,44.53
2019-02-19T21:58:44.743Z,44.59
2019-02-19T22:01:13.795Z,44.50
2019-02-19T22:03:42.716Z,44.57
2019-02-19T22:06:11.783Z,44.54
2019-02-19T22:08:40.778Z,44.51
2019-02-19T22:11:09.728Z,44.48
2019-02-19T22:13:38.654Z,44.52
2019-02-19T22:16:07.672Z,44.59
2019-02-19T22:18:36.676Z,44.65
2019-02-19T22:21:13.908Z,44.74
2019-02-19T22:23:42.877Z,44.77
2019-02-19T22:26:11.876Z,44.85
2019-02-19T22:28:40.876Z,44.97
2019-02-19T22:31:09.856Z,45.04
2019-02-19T22:33:38.854Z,45.19
2019-02-19T22:36:07.847Z,45.28
2019-02-19T22:38:36.936Z,45.43
2019-02-19T22:41:05.942Z,45.56
2019-02-19T22:43:34.965Z,45.64
2019-02-19T22:46:04.884Z,45.73
2019-02-19T22:48:33.942Z,45.86
2019-02-19T22:51:03.023Z,45.97
2019-02-19T22:53:42.627Z,46.15
2019-02-19T22:56:17.303Z,46.24
2019-02-19T22:58:46.361Z,46.30
2019-02-19T23:01:43.181Z,46.38
2019-02-19T23:04:12.098Z,46.50
2019-02-19T23:06:41.100Z,46.60
2019-02-19T23:09:10.147Z,46.73
2019-02-19T23:11:39.079Z,46.83
2019-02-19T23:14:08.183Z,46.89
2019-02-19T23:16:37.208Z,47.00
2019-02-19T23:19:06.195Z,47.08
2019-02-19T23:21:35.162Z,47.18
2019-02-19T23:24:04.062Z,47.11
2019-02-19T23:26:33.096Z,47.06
2019-02-19T23:29:02.193Z,47.02
2019-02-19T23:31:31.122Z,47.03
2019-02-19T23:34:00.204Z,47.00
2019-02-19T23:36:50.714Z,46.94
2019-02-19T23:39:19.837Z,46.89
2019-02-19T23:41:48.964Z,46.81
2019-02-19T23:44:18.044Z,46.71
2019-02-19T23:46:46.999Z,46.62
2019-02-19T23:49:16.014Z,46.62
2019-02-19T23:51:45.040Z,46.61
2019-02-19T23:54:14.120Z,46.58
2019-02-19T23:56:43.189Z,46.58
2019-02-19T23:59:12.258Z,46.60
